地図

経路データ

SID SEASON NUMBER BASIN SUBBASIN NAME ISO_TIME NATURE LAT LON WMO_WIND WMO_PRES WMO_AGENCY TRACK_TYPE DIST2LAND LANDFALL IFLAG USA_AGENCY USA_ATCF_ID USA_LAT USA_LON USA_RECORD USA_STATUS USA_WIND USA_PRES USA_SSHS USA_R34_NE USA_R34_SE USA_R34_SW USA_R34_NW USA_R50_NE USA_R50_SE USA_R50_SW USA_R50_NW USA_R64_NE USA_R64_SE USA_R64_SW USA_R64_NW USA_POCI USA_ROCI USA_RMW USA_EYE TOKYO_LAT TOKYO_LON TOKYO_GRADE TOKYO_WIND TOKYO_PRES TOKYO_R50_DIR TOKYO_R50_LONG TOKYO_R50_SHORT TOKYO_R30_DIR TOKYO_R30_LONG TOKYO_R30_SHORT TOKYO_LAND CMA_LAT CMA_LON CMA_CAT CMA_WIND CMA_PRES HKO_LAT HKO_LON HKO_CAT HKO_WIND HKO_PRES NEWDELHI_LAT NEWDELHI_LON NEWDELHI_GRADE NEWDELHI_WIND NEWDELHI_PRES NEWDELHI_CI NEWDELHI_DP NEWDELHI_POCI REUNION_LAT REUNION_LON REUNION_TYPE REUNION_WIND REUNION_PRES REUNION_TNUM REUNION_CI REUNION_RMW REUNION_R34_NE REUNION_R34_SE REUNION_R34_SW REUNION_R34_NW REUNION_R50_NE REUNION_R50_SE REUNION_R50_SW REUNION_R50_NW REUNION_R64_NE REUNION_R64_SE REUNION_R64_SW REUNION_R64_NW BOM_LAT BOM_LON BOM_TYPE BOM_WIND BOM_PRES BOM_TNUM BOM_CI BOM_RMW BOM_R34_NE BOM_R34_SE BOM_R34_SW BOM_R34_NW BOM_R50_NE BOM_R50_SE BOM_R50_SW BOM_R50_NW BOM_R64_NE BOM_R64_SE BOM_R64_SW BOM_R64_NW BOM_ROCI BOM_POCI BOM_EYE BOM_POS_METHOD BOM_PRES_METHOD NADI_LAT NADI_LON NADI_CAT NADI_WIND NADI_PRES WELLINGTON_LAT WELLINGTON_LON WELLINGTON_WIND WELLINGTON_PRES DS824_LAT DS824_LON DS824_STAGE DS824_WIND DS824_PRES TD9636_LAT TD9636_LON TD9636_STAGE TD9636_WIND TD9636_PRES TD9635_LAT TD9635_LON TD9635_WIND TD9635_PRES TD9635_ROCI NEUMANN_LAT NEUMANN_LON NEUMANN_CLASS NEUMANN_WIND NEUMANN_PRES MLC_LAT MLC_LON MLC_CLASS MLC_WIND MLC_PRES USA_GUST BOM_GUST BOM_GUST_PER REUNION_GUST REUNION_GUST_PER USA_SEAHGT USA_SEARAD_NE USA_SEARAD_SE USA_SEARAD_SW USA_SEARAD_NW STORM_SPEED STORM_DIR
1986262N12266 1986 96 EP MM NEWTON 1986-09-18 12:00:00 TS 12.4000 -94.5000 25 hurdat_epa main 342 342 O_________O___ hurdat_epa EP141986 12.4000 -94.5000 TD 25 -1 12.4000 -94.5000 1 25 13 284
1986262N12266 1986 96 EP MM NEWTON 1986-09-18 15:00:00 TS 12.5543 -95.1486 main 366 338 P_________P___ EP141986 12.5654 -95.1597 TD 25 -1 12.5212 -95.1152 1 25 13 283
1986262N12266 1986 96 EP MM NEWTON 1986-09-18 18:00:00 TS 12.6859 -95.7836 25 hurdat_epa main 335 314 O_________P___ hurdat_epa EP141986 12.7000 -95.8000 TD 25 -1 12.6434 -95.7345 1 25 12 281
1986262N12266 1986 96 EP MM NEWTON 1986-09-18 21:00:00 TS 12.7865 -96.3962 main 314 303 P_________P___ EP141986 12.7923 -96.4077 TD 25 -1 12.7689 -96.3616 1 25 12 280
1986262N12266 1986 96 EP MM NEWTON 1986-09-19 00:00:00 TS 12.9000 -97.0000 25 hurdat_epa main 305 296 O_________O___ hurdat_epa EP141986 12.9000 -97.0000 TD 25 -1 12.9000 -97.0000 1 25 12 284
1986262N12266 1986 96 EP MM NEWTON 1986-09-19 03:00:00 TS 13.0792 -97.6016 main 299 298 P_________P___ EP141986 13.0923 -97.5850 TD 25 -1 13.0401 -97.6513 1 25 13 287
1986262N12266 1986 96 EP MM NEWTON 1986-09-19 06:00:00 TS 13.2743 -98.2270 25 hurdat_epa main 305 303 O_________P___ hurdat_epa EP141986 13.3000 -98.2000 TD 25 -1 13.1972 -98.3082 1 25 13 285
1986262N12266 1986 96 EP MM NEWTON 1986-09-19 09:00:00 TS 13.4270 -98.9042 main 314 308 P_________P___ EP141986 13.4424 -98.8853 TD 25 -1 13.3807 -98.9609 1 25 14 284
1986262N12266 1986 96 EP MM NEWTON 1986-09-19 12:00:00 TS 13.6000 -99.6000 25 hurdat_epa main 320 318 O_________O___ hurdat_epa EP141986 13.6000 -99.6000 TD 25 -1 13.6000 -99.6000 1 25 14 287
1986262N12266 1986 96 EP MM NEWTON 1986-09-19 15:00:00 TS 13.8320 -100.307 main 330 317 P_________P___ EP141986 13.8200 -100.330 TD 27 -1 13.8679 -100.238 1 27 14 291
1986262N12266 1986 96 EP MM NEWTON 1986-09-19 18:00:00 TS 14.1174 -100.965 30 hurdat_epa main 322 312 O_________P___ hurdat_epa EP141986 14.1000 -101.000 TD 30 -1 14.1698 -100.860 1 30 13 298
1986262N12266 1986 96 EP MM NEWTON 1986-09-19 21:00:00 TS 14.4590 -101.516 main 310 292 P_________P___ EP141986 14.4497 -101.538 TD 32 -1 14.4868 -101.451 1 32 12 304
1986262N12266 1986 96 EP MM NEWTON 1986-09-20 00:00:00 TS 14.8000 -102.000 35 hurdat_epa main 295 287 O_________O___ hurdat_epa EP141986 14.8000 -102.000 TS 35 0 14.8000 -102.000 2 35 11 303
1986262N12266 1986 96 EP MM NEWTON 1986-09-20 03:00:00 TS 15.0584 -102.471 main 288 284 P_________P___ EP141986 15.0574 -102.458 TS 37 0 15.0613 -102.510 2 37 10 300
1986262N12266 1986 96 EP MM NEWTON 1986-09-20 06:00:00 TS 15.3048 -102.919 40 hurdat_epa main 295 278 O_________P___ hurdat_epa EP141986 15.3000 -102.900 TS 40 0 15.3194 -102.976 2 40 10 301
1986262N12266 1986 96 EP MM NEWTON 1986-09-20 09:00:00 TS 15.5813 -103.369 main 281 264 P_________P___ EP141986 15.5775 -103.358 TS 42 0 15.5927 -103.404 2 42 10 305
1986262N12266 1986 96 EP MM NEWTON 1986-09-20 12:00:00 TS 15.9000 -103.800 45 hurdat_epa main 264 235 O_________O___ hurdat_epa EP141986 15.9000 -103.800 TS 45 0 15.9000 -103.800 2 45 11 311
1986262N12266 1986 96 EP MM NEWTON 1986-09-20 15:00:00 TS 16.2746 -104.211 main 235 213 P_________P___ EP141986 16.2850 -104.223 TS 45 0 16.2434 -104.178 2 46 11 316
1986262N12266 1986 96 EP MM NEWTON 1986-09-20 18:00:00 TS 16.6811 -104.582 45 hurdat_epa main 213 200 O_________P___ hurdat_epa EP141986 16.7000 -104.600 TS 45 0 16.6245 -104.528 2 47 10 321
1986262N12266 1986 96 EP MM NEWTON 1986-09-20 21:00:00 TS 17.0745 -104.897 main 200 192 P_________P___ EP141986 17.0849 -104.908 TS 47 0 17.0435 -104.864 2 48 10 324
1986262N12266 1986 96 EP MM NEWTON 1986-09-21 00:00:00 TS 17.5000 -105.200 50 hurdat_epa main 192 153 O_________O___ hurdat_epa EP141986 17.5000 -105.200 TS 50 0 17.5000 -105.200 2 50 11 326
1986262N12266 1986 96 EP MM NEWTON 1986-09-21 03:00:00 TS 17.9940 -105.560 main 158 138 P_________P___ EP141986 17.9925 -105.557 TS 57 0 17.9984 -105.566 2 57 12 326
1986262N12266 1986 96 EP MM NEWTON 1986-09-21 06:00:00 TS 18.5000 -105.900 65 hurdat_epa main 138 122 O_________O___ hurdat_epa EP141986 18.5000 -105.900 HU 65 1 18.5000 -105.900 3 65 11 329
1986262N12266 1986 96 EP MM NEWTON 1986-09-21 09:00:00 TS 18.9576 -106.172 main 122 113 P_________P___ EP141986 18.9574 -106.173 HU 65 1 18.9580 -106.169 3 65 10 332
1986262N12266 1986 96 EP MM NEWTON 1986-09-21 12:00:00 TS 19.4000 -106.400 65 hurdat_epa main 115 109 O_________O___ hurdat_epa EP141986 19.4000 -106.400 HU 65 1 19.4000 -106.400 4 65 10 335
1986262N12266 1986 96 EP MM NEWTON 1986-09-21 15:00:00 TS 19.8516 -106.607 main 109 106 P_________P___ EP141986 19.8499 -106.600 HU 65 1 19.8566 -106.628 4 65 10 337
1986262N12266 1986 96 EP MM NEWTON 1986-09-21 18:00:00 TS 20.3033 -106.812 65 hurdat_epa main 115 114 O_________P___ hurdat_epa EP141986 20.3000 -106.800 HU 65 1 20.3134 -106.847 4 65 10 335
1986262N12266 1986 96 EP MM NEWTON 1986-09-21 21:00:00 TS 20.7590 -107.054 main 152 152 P_________P___ EP141986 20.7575 -107.050 HU 65 1 20.7634 -107.067 4 65 10 333
1986262N12266 1986 96 EP MM NEWTON 1986-09-22 00:00:00 TS 21.2000 -107.300 65 hurdat_epa main 188 188 O_________O___ hurdat_epa EP141986 21.2000 -107.300 HU 65 1 21.2000 -107.300 4 65 10 334
1986262N12266 1986 96 EP MM NEWTON 1986-09-22 03:00:00 TS 21.6081 -107.502 main 201 189 P_________P___ EP141986 21.6073 -107.485 HU 65 1 21.6102 -107.553 4 65 9 333
1986262N12266 1986 96 EP MM NEWTON 1986-09-22 06:00:00 TS 22.0018 -107.730 65 hurdat_epa main 189 177 O_________P___ hurdat_epa EP141986 22.0000 -107.700 HU 65 1 22.0073 -107.821 4 65 9 327
1986262N12266 1986 96 EP MM NEWTON 1986-09-22 09:00:00 TS 22.4002 -108.046 main 177 121 P_________P___ EP141986 22.4000 -108.028 HU 65 1 22.4008 -108.103 4 65 10 322
1986262N12266 1986 96 EP MM NEWTON 1986-09-22 12:00:00 TS 22.8000 -108.400 65 hurdat_epa main 121 74 O_________O___ hurdat_epa EP141986 22.8000 -108.400 HU 65 1 22.8000 -108.400 4 65 10 321
1986262N12266 1986 96 EP MM NEWTON 1986-09-22 15:00:00 TS 23.1999 -108.757 main 65 37 P_________P___ EP141986 23.1925 -108.758 HU 65 1 23.2223 -108.755 4 66 10 321
1986262N12266 1986 96 EP MM NEWTON 1986-09-22 18:00:00 TS 23.6127 -109.104 65 hurdat_epa main 37 30 O_________P___ hurdat_epa EP141986 23.6000 -109.100 HU 65 1 23.6506 -109.116 4 67 11 324
1986262N12266 1986 96 EP MM NEWTON 1986-09-22 21:00:00 TS 24.0628 -109.439 main 42 30 P_________P___ EP141986 24.0575 -109.437 HU 67 1 24.0786 -109.445 4 68 10 328
1986262N12266 1986 96 EP MM NEWTON 1986-09-23 00:00:00 TS 24.5000 -109.700 70 hurdat_epa main 45 45 O_________O___ hurdat_epa EP141986 24.5000 -109.700 HU 70 1 24.5000 -109.700 4 70 9 335
1986262N12266 1986 96 EP MM NEWTON 1986-09-23 03:00:00 TS 24.8696 -109.846 main 78 73 P_________P___ EP141986 24.8499 -109.845 HU 72 1 24.9285 -109.848 4 68 8 346
1986262N12266 1986 96 EP MM NEWTON 1986-09-23 06:00:00 TS 25.2368 -109.904 75 hurdat_epa main 75 50 O_________P___ hurdat_epa EP141986 25.2000 -109.900 HU 75 1 25.3472 -109.917 4 67 8 355
1986262N12266 1986 96 EP MM NEWTON 1986-09-23 09:00:00 TS 25.6787 -109.924 main 50 49 P_________P___ EP141986 25.6575 -109.923 HU 70 1 25.7424 -109.927 4 66 9 0
1986262N12266 1986 96 EP MM NEWTON 1986-09-23 12:00:00 TS 26.1000 -109.900 65 hurdat_epa main 49 38 O_________O___ hurdat_epa EP141986 26.1000 -109.900 HU 65 1 26.1000 -109.900 4 65 8 4
1986262N12266 1986 96 EP MM NEWTON 1986-09-23 15:00:00 TS 26.4230 -109.857 main 38 9 P_________P___ EP141986 26.4225 -109.858 HU 65 1 26.4129 -109.854 4 65 6 8
1986262N12266 1986 96 EP MM NEWTON 1986-09-23 18:00:00 TS 26.7000 -109.800 65 hurdat_epa main 9 0 O_________O___ hurdat_epa EP141986 26.7000 -109.800 HU 65 1 26.7000 -109.800 4 65 6 9
1986262N12266 1986 96 EP MM NEWTON 1986-09-23 21:00:00 TS 26.9925 -109.748 main 0 0 P_____________ EP141986 26.9925 -109.748 HU 57 0 4 6 8
1986262N12266 1986 96 EP MM NEWTON 1986-09-24 00:00:00 TS 27.3000 -109.700 50 hurdat_epa main 0 O_____________ hurdat_epa EP141986 27.3000 -109.700 TS 50 0 6 6

IBTrACS Databaseについて

本データベースは、米国NOAAが公開する1842年以降の世界の熱帯低気圧のベストトラックデータアーカイブInternational Best Track Archive for Climate Stewardship (IBTrACS)を、ウェブで閲覧しやすい形式に変換したものです。

最終更新日:2021-12-03